createdAt,value
2023-04-01T00:01:18.226Z,8.52
2023-04-01T00:03:47.619Z,8.47
2023-04-01T00:06:18.386Z,8.41
2023-04-01T00:08:47.614Z,8.49
2023-04-01T00:11:16.882Z,8.53
2023-04-01T00:13:45.441Z,8.55
2023-04-01T00:16:21.580Z,8.61
2023-04-01T00:18:51.755Z,8.62
2023-04-01T00:21:21.901Z,8.65
2023-04-01T00:23:51.800Z,8.74
2023-04-01T00:26:22.279Z,8.74
2023-04-01T00:28:51.277Z,8.74
2023-04-01T00:31:19.783Z,8.80
2023-04-01T00:33:48.052Z,8.76
2023-04-01T00:36:20.560Z,8.79
2023-04-01T00:38:49.210Z,8.80
2023-04-01T00:41:18.232Z,8.78
2023-04-01T00:43:49.003Z,8.76
2023-04-01T00:46:17.663Z,8.83
2023-04-01T00:48:52.547Z,8.77
2023-04-01T00:51:28.228Z,8.67
2023-04-01T00:53:59.109Z,8.58
2023-04-01T00:56:33.291Z,8.58
2023-04-01T00:59:11.929Z,8.63
2023-04-01T01:01:41.009Z,8.66
2023-04-01T01:04:23.180Z,8.67
2023-04-01T01:06:58.069Z,8.59
2023-04-01T01:09:54.516Z,8.65
2023-04-01T01:12:41.355Z,8.73
2023-04-01T01:15:30.704Z,8.73
2023-04-01T01:18:20.274Z,8.67
2023-04-01T01:21:06.846Z,8.66
2023-04-01T01:24:04.440Z,8.67
2023-04-01T01:27:10.196Z,8.69
2023-04-01T01:29:53.704Z,8.70
2023-04-01T01:32:57.340Z,8.73
2023-04-01T01:35:51.200Z,8.59
2023-04-01T01:38:25.155Z,8.70
2023-04-01T01:40:59.064Z,8.71
2023-04-01T01:43:37.832Z,8.71
2023-04-01T01:46:12.690Z,8.74
2023-04-01T01:48:43.808Z,8.73
2023-04-01T01:51:12.824Z,8.73
2023-04-01T01:53:41.617Z,8.75
2023-04-01T01:56:13.631Z,8.78
2023-04-01T01:58:56.967Z,8.81
2023-04-01T02:01:29.353Z,8.86
2023-04-01T02:03:59.879Z,8.77
2023-04-01T02:06:31.850Z,8.78
2023-04-01T02:09:04.952Z,8.82
2023-04-01T02:11:53.815Z,8.75
2023-04-01T02:14:46.224Z,8.71
2023-04-01T02:17:23.431Z,8.80
2023-04-01T02:20:08.866Z,8.83
2023-04-01T02:22:42.968Z,8.75
2023-04-01T02:25:21.864Z,8.78
2023-04-01T02:27:50.665Z,8.71
2023-04-01T02:30:19.773Z,8.73
2023-04-01T02:32:49.517Z,8.71
2023-04-01T02:35:19.007Z,8.71
2023-04-01T02:37:50.726Z,8.67
2023-04-01T02:40:19.485Z,8.64
2023-04-01T02:42:48.205Z,8.63
2023-04-01T02:45:16.372Z,8.65
2023-04-01T02:47:44.571Z,8.59
2023-04-01T02:50:13.150Z,8.54
2023-04-01T02:52:41.486Z,8.45
2023-04-01T02:55:10.149Z,8.40
2023-04-01T02:57:38.623Z,8.34
2023-04-01T03:00:12.122Z,8.34
2023-04-01T03:02:40.745Z,8.29
2023-04-01T03:05:09.188Z,8.32
2023-04-01T03:07:37.650Z,8.37
2023-04-01T03:10:07.648Z,8.42
2023-04-01T03:12:36.156Z,8.42
2023-04-01T03:15:10.741Z,8.42
2023-04-01T03:17:42.376Z,8.42
2023-04-01T03:20:12.206Z,8.42
2023-04-01T03:22:42.878Z,8.43
2023-04-01T03:25:11.657Z,8.40
2023-04-01T03:27:40.139Z,8.39
2023-04-01T03:30:10.558Z,8.38
2023-04-01T03:32:39.117Z,8.30
2023-04-01T03:35:07.525Z,8.28
2023-04-01T03:37:36.016Z,8.22
2023-04-01T03:40:04.823Z,8.25
2023-04-01T03:42:33.630Z,8.24
2023-04-01T03:45:02.353Z,8.15
2023-04-01T03:47:31.375Z,8.11
2023-04-01T03:49:59.616Z,8.11
2023-04-01T03:52:28.142Z,8.08
2023-04-01T03:54:56.560Z,8.02
2023-04-01T03:57:25.981Z,8.07
2023-04-01T03:59:54.730Z,8.16
2023-04-01T04:02:22.952Z,8.26
2023-04-01T04:04:51.724Z,8.33
2023-04-01T04:07:19.818Z,8.32
2023-04-01T04:09:49.465Z,8.30
2023-04-01T04:12:18.329Z,8.27
2023-04-01T04:14:46.515Z,8.23
2023-04-01T04:17:17.275Z,8.25
2023-04-01T04:19:46.053Z,8.16
2023-04-01T04:22:14.589Z,8.06
2023-04-01T04:24:42.700Z,8.08
2023-04-01T04:27:11.493Z,8.08
2023-04-01T04:29:44.007Z,8.02
2023-04-01T04:32:12.389Z,7.98
2023-04-01T04:34:41.217Z,8.04
2023-04-01T04:37:09.375Z,7.96
2023-04-01T04:39:38.425Z,7.97
2023-04-01T04:42:07.262Z,8.03
2023-04-01T04:44:35.824Z,8.00
2023-04-01T04:47:04.492Z,8.06
2023-04-01T04:49:32.916Z,8.02
2023-04-01T04:52:02.638Z,8.02
2023-04-01T04:54:31.218Z,8.01
2023-04-01T04:56:59.767Z,8.02
2023-04-01T04:59:28.807Z,8.02
2023-04-01T05:01:58.222Z,8.03
2023-04-01T05:04:26.876Z,8.01
2023-04-01T05:06:55.119Z,7.96
2023-04-01T05:09:24.230Z,7.86
2023-04-01T05:11:52.658Z,7.90
2023-04-01T05:14:21.598Z,7.85
2023-04-01T05:16:51.884Z,7.85
2023-04-01T05:19:20.073Z,7.88
2023-04-01T05:21:48.572Z,7.91
2023-04-01T05:24:17.653Z,7.93
2023-04-01T05:26:46.070Z,8.07
2023-04-01T05:29:14.397Z,8.16
2023-04-01T05:31:43.266Z,8.15
2023-04-01T05:34:11.780Z,8.31
2023-04-01T05:36:39.970Z,8.42
2023-04-01T05:39:08.984Z,8.49
2023-04-01T05:41:38.681Z,8.55
2023-04-01T05:44:07.087Z,8.51
2023-04-01T05:46:39.662Z,8.57
2023-04-01T05:49:08.577Z,8.61
2023-04-01T05:51:37.548Z,8.79
2023-04-01T05:54:07.688Z,8.95
2023-04-01T05:56:35.866Z,9.07
2023-04-01T05:59:03.992Z,9.22
2023-04-01T06:01:33.239Z,9.41
2023-04-01T06:04:01.905Z,9.59
2023-04-01T06:06:32.897Z,9.77
2023-04-01T06:09:19.209Z,9.79
2023-04-01T06:12:06.629Z,9.90
2023-04-01T06:14:53.521Z,10.00
2023-04-01T06:17:40.060Z,10.15
2023-04-01T06:20:18.128Z,10.44
2023-04-01T06:23:15.742Z,10.40
2023-04-01T06:26:12.556Z,10.45
2023-04-01T06:29:01.060Z,10.61
2023-04-01T06:31:54.894Z,10.63
2023-04-01T06:34:55.680Z,10.73
2023-04-01T06:38:03.421Z,10.75
2023-04-01T06:40:53.358Z,10.79
2023-04-01T06:43:23.273Z,10.76
2023-04-01T06:46:19.951Z,10.68
2023-04-01T06:49:17.852Z,11.04
2023-04-01T06:52:13.878Z,10.95
2023-04-01T06:54:57.717Z,10.88
2023-04-01T06:57:43.593Z,10.93
2023-04-01T07:00:20.014Z,11.08
2023-04-01T07:02:59.751Z,11.17
2023-04-01T07:05:32.813Z,11.35
2023-04-01T07:08:06.269Z,11.26
2023-04-01T07:10:38.398Z,11.38
2023-04-01T07:13:43.094Z,11.53
2023-04-01T07:16:30.938Z,11.62
2023-04-01T07:19:26.715Z,11.69
2023-04-01T07:21:59.289Z,11.86
2023-04-01T07:24:35.086Z,11.92
2023-04-01T07:27:04.535Z,12.21
2023-04-01T07:29:32.740Z,12.38
2023-04-01T07:32:50.411Z,12.14
2023-04-01T07:35:27.993Z,12.48
2023-04-01T07:38:41.872Z,12.38
2023-04-01T07:41:42.606Z,12.21
2023-04-01T07:44:29.965Z,12.35
2023-04-01T07:47:36.026Z,12.21
2023-04-01T07:50:14.872Z,12.48
2023-04-01T07:52:43.364Z,12.64
2023-04-01T07:55:19.189Z,12.54
2023-04-01T07:58:11.602Z,12.72
2023-04-01T08:01:05.355Z,12.62
2023-04-01T08:03:43.703Z,12.90
2023-04-01T08:06:25.719Z,13.05
2023-04-01T08:08:54.430Z,13.05
2023-04-01T08:11:47.076Z,13.06
2023-04-01T08:14:52.057Z,13.15
2023-04-01T08:17:46.039Z,13.01
2023-04-01T08:20:19.978Z,13.03
2023-04-01T08:22:58.660Z,13.23
2023-04-01T08:25:31.145Z,13.39
2023-04-01T08:28:14.295Z,13.35
2023-04-01T08:30:55.308Z,13.56
2023-04-01T08:33:31.923Z,13.65
2023-04-01T08:36:18.212Z,13.55
2023-04-01T08:39:11.878Z,13.47
2023-04-01T08:42:06.322Z,13.36
2023-04-01T08:45:01.459Z,13.09
2023-04-01T08:47:31.443Z,12.96
2023-04-01T08:50:11.082Z,12.84
2023-04-01T08:53:04.738Z,12.80
2023-04-01T08:55:39.125Z,12.76
2023-04-01T08:58:31.866Z,13.02
2023-04-01T09:01:14.303Z,12.97
2023-04-01T09:04:02.058Z,12.86
2023-04-01T09:06:53.206Z,12.36
2023-04-01T09:09:43.166Z,12.33
2023-04-01T09:12:26.679Z,12.32
2023-04-01T09:15:29.099Z,12.56
2023-04-01T09:18:12.796Z,12.55
2023-04-01T09:21:20.049Z,12.71
2023-04-01T09:24:20.828Z,12.64
2023-04-01T09:26:59.673Z,12.72
2023-04-01T09:29:55.612Z,12.33
2023-04-01T09:32:24.521Z,12.37
2023-04-01T09:34:58.553Z,12.03
2023-04-01T09:37:43.210Z,11.94
2023-04-01T09:40:36.794Z,11.89
2023-04-01T09:43:28.363Z,11.97
2023-04-01T09:46:20.326Z,12.07
2023-04-01T09:49:09.496Z,12.18
2023-04-01T09:52:07.231Z,12.39
2023-04-01T09:54:55.191Z,12.09
2023-04-01T09:57:49.694Z,12.00
2023-04-01T10:00:40.779Z,12.13
2023-04-01T10:03:39.770Z,11.98
2023-04-01T10:06:26.070Z,11.98
2023-04-01T10:09:13.099Z,11.95
2023-04-01T10:11:46.877Z,12.14
2023-04-01T10:14:43.856Z,12.10
2023-04-01T10:17:19.947Z,12.08
2023-04-01T10:20:46.663Z,11.85
2023-04-01T10:23:32.973Z,11.93
2023-04-01T10:26:32.618Z,11.83
2023-04-01T10:29:28.011Z,11.80
2023-04-01T10:32:19.078Z,11.78
2023-04-01T10:34:55.861Z,11.81
2023-04-01T10:37:37.053Z,12.02
2023-04-01T10:40:43.052Z,11.92
2023-04-01T10:43:34.262Z,11.93
2023-04-01T10:46:30.570Z,12.01
2023-04-01T10:49:46.876Z,12.26
2023-04-01T10:52:53.008Z,12.32
2023-04-01T10:56:04.392Z,12.42
2023-04-01T10:59:03.695Z,13.03
2023-04-01T11:02:10.130Z,13.22
2023-04-01T11:05:31.190Z,13.55
2023-04-01T11:08:52.632Z,13.89
2023-04-01T11:11:53.263Z,13.66
2023-04-01T11:14:40.476Z,13.12
2023-04-01T11:17:27.422Z,13.05
2023-04-01T11:20:25.144Z,12.67
2023-04-01T11:23:10.853Z,12.54
2023-04-01T11:26:03.267Z,12.61
2023-04-01T11:29:35.927Z,12.28
2023-04-01T11:32:38.010Z,12.03
2023-04-01T11:35:42.082Z,11.79
2023-04-01T11:38:50.900Z,12.09
2023-04-01T11:41:41.848Z,11.84
2023-04-01T11:44:23.710Z,11.88
2023-04-01T11:47:14.530Z,11.95
2023-04-01T11:49:54.657Z,12.18
2023-04-01T11:52:52.252Z,12.25
2023-04-01T11:55:37.175Z,12.22
2023-04-01T11:58:31.261Z,12.35
2023-04-01T12:01:17.595Z,12.46
2023-04-01T12:04:04.759Z,12.76
2023-04-01T12:06:39.381Z,13.01
2023-04-01T12:09:45.797Z,13.37
2023-04-01T12:12:32.434Z,13.54
2023-04-01T12:15:24.250Z,13.55
2023-04-01T12:18:10.862Z,13.55
2023-04-01T12:20:55.784Z,13.47
2023-04-01T12:23:32.545Z,13.12
2023-04-01T12:26:33.013Z,13.15
2023-04-01T12:29:39.604Z,13.37
2023-04-01T12:32:53.164Z,13.45
2023-04-01T12:35:44.988Z,13.56
2023-04-01T12:38:37.088Z,13.77
2023-04-01T12:41:33.409Z,14.08
2023-04-01T12:44:08.932Z,14.03
2023-04-01T12:47:10.802Z,14.07
2023-04-01T12:50:14.780Z,14.12
2023-04-01T12:53:04.925Z,14.37
2023-04-01T12:55:43.393Z,14.30
2023-04-01T12:58:27.158Z,14.49
2023-04-01T13:01:27.838Z,14.50
2023-04-01T13:04:21.063Z,14.54
2023-04-01T13:07:14.856Z,14.50
2023-04-01T13:09:45.434Z,14.51
2023-04-01T13:12:24.546Z,14.52
2023-04-01T13:15:23.055Z,14.46
2023-04-01T13:18:08.813Z,14.56
2023-04-01T13:20:55.874Z,14.50
2023-04-01T13:23:30.279Z,14.70
2023-04-01T13:26:15.170Z,14.75
2023-04-01T13:29:01.435Z,14.77
2023-04-01T13:31:54.656Z,14.78
2023-04-01T13:34:35.278Z,15.02
2023-04-01T13:37:22.117Z,14.90
2023-04-01T13:39:59.982Z,15.04
2023-04-01T13:42:33.295Z,14.88
2023-04-01T13:45:15.338Z,14.63
2023-04-01T13:48:08.994Z,14.75
2023-04-01T13:51:02.627Z,14.82
2023-04-01T13:54:00.778Z,14.61
2023-04-01T13:56:43.924Z,14.64
2023-04-01T13:59:36.092Z,14.82
2023-04-01T14:02:23.549Z,14.80
2023-04-01T14:05:32.440Z,14.74
2023-04-01T14:08:19.606Z,14.41
2023-04-01T14:11:21.349Z,14.53
2023-04-01T14:14:28.243Z,14.73
2023-04-01T14:17:02.392Z,14.50
2023-04-01T14:19:53.528Z,14.47
2023-04-01T14:22:22.439Z,14.30
2023-04-01T14:25:05.833Z,14.33
2023-04-01T14:27:57.295Z,14.25
2023-04-01T14:30:57.537Z,14.16
2023-04-01T14:33:44.643Z,14.31
2023-04-01T14:36:50.413Z,14.11
2023-04-01T14:39:37.985Z,14.37
2023-04-01T14:42:21.937Z,14.49
2023-04-01T14:45:14.598Z,14.44
2023-04-01T14:48:15.153Z,14.43
2023-04-01T14:50:56.544Z,14.44
2023-04-01T14:53:25.318Z,14.56
2023-04-01T14:55:59.298Z,14.37
2023-04-01T14:58:40.888Z,14.42
2023-04-01T15:01:27.714Z,14.51
2023-04-01T15:04:16.221Z,14.57
2023-04-01T15:07:17.640Z,14.54
2023-04-01T15:09:45.844Z,14.64
2023-04-01T15:12:35.973Z,14.68
2023-04-01T15:15:31.275Z,14.71
2023-04-01T15:18:13.643Z,14.55
2023-04-01T15:21:00.660Z,14.47
2023-04-01T15:23:44.715Z,14.34
2023-04-01T15:26:55.984Z,14.35
2023-04-01T15:29:34.467Z,14.12
2023-04-01T15:32:05.815Z,14.25
2023-04-01T15:34:34.727Z,14.34
2023-04-01T15:37:11.857Z,14.32
2023-04-01T15:40:08.877Z,14.25
2023-04-01T15:42:55.565Z,14.47
2023-04-01T15:45:55.762Z,14.49
2023-04-01T15:48:36.136Z,14.73
2023-04-01T15:51:30.119Z,14.51
2023-04-01T15:54:05.967Z,14.49
2023-04-01T15:56:43.371Z,14.32
2023-04-01T15:59:30.408Z,14.64
2023-04-01T16:02:38.441Z,14.53
2023-04-01T16:05:38.537Z,14.21
2023-04-01T16:08:23.745Z,14.22
2023-04-01T16:10:52.345Z,13.99
2023-04-01T16:13:23.398Z,13.96
2023-04-01T16:16:32.017Z,13.80
2023-04-01T16:19:15.487Z,13.67
2023-04-01T16:21:56.066Z,13.64
2023-04-01T16:24:35.699Z,13.44
2023-04-01T16:27:12.917Z,13.62
2023-04-01T16:29:56.936Z,13.40
2023-04-01T16:32:54.169Z,13.54
2023-04-01T16:36:07.559Z,13.44
2023-04-01T16:38:42.894Z,13.31
2023-04-01T16:41:21.663Z,13.33
2023-04-01T16:43:56.888Z,13.31
2023-04-01T16:46:36.784Z,13.39
2023-04-01T16:49:27.017Z,13.50
2023-04-01T16:52:05.352Z,13.32
2023-04-01T16:55:01.185Z,13.39
2023-04-01T16:57:44.700Z,13.27
2023-04-01T17:00:28.839Z,13.07
2023-04-01T17:03:18.385Z,13.04
2023-04-01T17:06:15.406Z,12.92
2023-04-01T17:09:21.497Z,12.96
2023-04-01T17:12:28.482Z,12.93
2023-04-01T17:15:09.179Z,12.99
2023-04-01T17:17:40.928Z,12.77
2023-04-01T17:20:30.565Z,12.69
2023-04-01T17:23:41.259Z,12.53
2023-04-01T17:26:48.246Z,12.56
2023-04-01T17:30:05.277Z,12.44
2023-04-01T17:33:01.922Z,12.56
2023-04-01T17:35:38.885Z,12.29
2023-04-01T17:38:10.893Z,12.12
2023-04-01T17:40:51.765Z,12.12
2023-04-01T17:43:33.205Z,12.17
2023-04-01T17:46:40.888Z,12.00
2023-04-01T17:49:15.342Z,11.84
2023-04-01T17:51:56.739Z,11.80
2023-04-01T17:54:45.496Z,11.62
2023-04-01T17:57:35.449Z,11.73
2023-04-01T18:00:15.519Z,11.72
2023-04-01T18:03:30.938Z,11.81
2023-04-01T18:06:15.490Z,11.76
2023-04-01T18:08:59.318Z,11.67
2023-04-01T18:11:40.422Z,11.62
2023-04-01T18:14:35.175Z,11.60
2023-04-01T18:17:25.910Z,11.46
2023-04-01T18:20:31.696Z,11.25
2023-04-01T18:23:03.782Z,11.21
2023-04-01T18:25:55.227Z,11.20
2023-04-01T18:28:29.018Z,11.19
2023-04-01T18:31:11.288Z,11.09
2023-04-01T18:34:03.433Z,10.98
2023-04-01T18:37:01.789Z,10.92
2023-04-01T18:39:39.215Z,10.73
2023-04-01T18:42:16.723Z,10.68
2023-04-01T18:44:51.771Z,10.62
2023-04-01T18:47:48.256Z,10.50
2023-04-01T18:50:24.543Z,10.51
2023-04-01T18:53:21.998Z,10.46
2023-04-01T18:56:04.734Z,10.46
2023-04-01T18:58:53.598Z,10.40
2023-04-01T19:01:36.873Z,10.36
2023-04-01T19:04:22.625Z,10.28
2023-04-01T19:06:55.910Z,10.33
2023-04-01T19:09:43.803Z,10.25
2023-04-01T19:12:32.285Z,10.25
2023-04-01T19:15:23.874Z,10.23
2023-04-01T19:17:55.351Z,10.11
2023-04-01T19:21:02.715Z,10.16
2023-04-01T19:24:00.516Z,10.27
2023-04-01T19:27:04.576Z,10.32
2023-04-01T19:30:10.972Z,10.32
2023-04-01T19:32:53.331Z,10.43
2023-04-01T19:35:31.562Z,10.54
2023-04-01T19:38:06.423Z,10.54
2023-04-01T19:41:10.395Z,10.69
2023-04-01T19:43:47.941Z,10.62
2023-04-01T19:46:22.819Z,10.65
2023-04-01T19:49:05.510Z,10.72
2023-04-01T19:52:04.981Z,10.66
2023-04-01T19:55:02.410Z,10.76
2023-04-01T19:58:08.361Z,10.73
2023-04-01T20:00:48.176Z,10.68
2023-04-01T20:03:46.199Z,10.65
2023-04-01T20:06:28.826Z,10.78
2023-04-01T20:09:36.248Z,10.71
2023-04-01T20:12:30.289Z,10.72
2023-04-01T20:15:01.815Z,10.70
2023-04-01T20:17:43.224Z,10.67
2023-04-01T20:20:11.683Z,10.59
2023-04-01T20:22:46.295Z,10.58
2023-04-01T20:25:37.218Z,10.65
2023-04-01T20:28:14.496Z,10.65
2023-04-01T20:30:54.896Z,10.68
2023-04-01T20:33:33.676Z,10.61
2023-04-01T20:36:14.989Z,10.63
2023-04-01T20:38:59.229Z,10.49
2023-04-01T20:41:38.770Z,10.51
2023-04-01T20:44:12.998Z,10.46
2023-04-01T20:46:57.231Z,10.42
2023-04-01T20:49:32.455Z,10.24
2023-04-01T20:52:13.049Z,9.84
2023-04-01T20:54:44.484Z,9.52
2023-04-01T20:57:54.834Z,9.58
2023-04-01T21:00:44.947Z,9.49
2023-04-01T21:03:26.598Z,9.41
2023-04-01T21:06:13.704Z,9.32
2023-04-01T21:08:46.211Z,9.31
2023-04-01T21:11:35.483Z,9.42
2023-04-01T21:14:16.336Z,9.36
2023-04-01T21:17:10.129Z,9.26
2023-04-01T21:19:38.518Z,9.26
2023-04-01T21:22:20.358Z,9.27
2023-04-01T21:25:12.636Z,9.29
2023-04-01T21:28:06.712Z,9.27
2023-04-01T21:31:00.611Z,9.28
2023-04-01T21:33:46.782Z,9.25
2023-04-01T21:36:36.798Z,9.25
2023-04-01T21:39:33.971Z,9.22
2023-04-01T21:42:17.335Z,9.17
2023-04-01T21:45:08.837Z,9.30
2023-04-01T21:47:46.129Z,9.40
2023-04-01T21:50:35.815Z,9.34
2023-04-01T21:53:32.479Z,9.38
2023-04-01T21:56:18.936Z,9.52
2023-04-01T21:58:50.387Z,9.44
2023-04-01T22:02:04.702Z,9.51
2023-04-01T22:05:03.476Z,9.49
2023-04-01T22:07:56.926Z,9.53
2023-04-01T22:10:52.930Z,9.71
2023-04-01T22:13:27.045Z,9.94
2023-04-01T22:16:16.984Z,9.99
2023-04-01T22:19:30.426Z,9.91
2023-04-01T22:22:30.682Z,9.81
2023-04-01T22:25:07.055Z,9.78
2023-04-01T22:27:57.021Z,9.83
2023-04-01T22:30:32.606Z,9.81
2023-04-01T22:33:11.673Z,9.75
2023-04-01T22:35:48.465Z,9.74
2023-04-01T22:38:57.390Z,9.69
2023-04-01T22:41:38.017Z,9.71
2023-04-01T22:44:22.822Z,9.55
2023-04-01T22:47:06.470Z,9.56
2023-04-01T22:49:43.177Z,9.50
2023-04-01T22:52:33.300Z,9.37
2023-04-01T22:55:10.916Z,9.30
2023-04-01T22:58:06.711Z,9.29
2023-04-01T23:00:41.934Z,9.14
2023-04-01T23:03:15.868Z,9.26
2023-04-01T23:05:51.648Z,9.20
2023-04-01T23:08:37.847Z,9.33
2023-04-01T23:11:09.905Z,9.18
2023-04-01T23:13:49.441Z,9.07
2023-04-01T23:16:21.605Z,9.14
2023-04-01T23:19:17.492Z,9.02
2023-04-01T23:21:50.714Z,8.90
2023-04-01T23:24:48.810Z,8.78
2023-04-01T23:28:15.970Z,8.67
2023-04-01T23:30:45.019Z,8.64
2023-04-01T23:33:19.962Z,8.64
2023-04-01T23:36:16.627Z,8.36
2023-04-01T23:38:49.934Z,8.51
2023-04-01T23:41:26.380Z,8.51
2023-04-01T23:44:11.475Z,8.11
2023-04-01T23:46:42.039Z,8.29
2023-04-01T23:49:28.347Z,8.28
2023-04-01T23:52:01.058Z,8.26
2023-04-01T23:54:40.432Z,8.29
2023-04-01T23:57:23.306Z,8.25
